EDFY weather

Elz Airport
Limburg an der Lahn, Hesse, Germany

Public forecast

Using degrees Celsius for public forecast. Weather courtesy of forecast.io.

METAR (pilot weather report)

Closest report is Siegerland Airport, 17.1 nm (31.6 km) N. Retrieved 2019/09/19 15:20 UTC (30 minutes ago):

EDGS 191520Z 33007KT 300V010 CAVOK 13/01 Q1029

TAF (pilot weather forecast)

Closest forecast is Wiesbaden Army Airfield, 25.7 nm (47.5 km) SSE. Retrieved 2019/09/19 11:05 UTC (5 hours ago):

TAF ETOU 191102Z 1911/2017 06009KT 9999 FEW040 QNH3035INS TEMPO 1912/1916 04010G15KT BECMG 1920/1921 VRB06KT 9999 SKC QNH3026INS TX20/1915Z TN03/2005Z